Terminal Aerodrome Forecast
Issued by NWS

Home | Current Version | Previous Version | Graphics & Text | Print | Product List | Glossary On
Versions: 1 2 3 4 5 6 7 8 9 10 11 12 13 14 15 16 17 18 19
545
FTUS42 KMHX 142323
TAFPGV
TAF
KPGV 142323Z 1500/1524 02005KT P6SM SCT040
     FM150200 01004KT P6SM FEW200
     FM151900 01006KT P6SM SCT025 BKN090
      AMD LTD TO CLD VIS AND WIND=

USA.gov is the U.S. government's official web portal to all federal, state and local government web resources and services.